Time;durP1;ratioP1;P1;durP2;ratioP2;P2;SDS_P1;SDS_P2;PMS_P1;PMS_P2;Temp;Humidity;BMP_temperature;BMP_pressure;BME280_temperature;BME280_humidity;BME280_pressure;Samples;Min_cycle;Max_cycle;Signal;HPM_P1;HPM_P2
2023/04/12 00:01:23;;;;;;;13.70;6.10;;;;;;;5.49;94.60;100256.11;111000;1206;140704;-59
2023/04/12 00:03:49;;;;;;;12.70;5.40;;;;;;;5.49;94.73;100255.75;111118;1222;98920;-60
2023/04/12 00:06:17;;;;;;;9.40;4.50;;;;;;;5.49;94.68;100256.98;110912;1212;139404;-59
2023/04/12 00:08:45;;;;;;;11.30;6.10;;;;;;;5.48;94.71;100258.97;111033;1206;98948;-60
2023/04/12 00:11:11;;;;;;;10.70;4.60;;;;;;;5.47;94.76;100253.88;111046;1211;99084;-60
2023/04/12 00:13:36;;;;;;;10.40;4.90;;;;;;;5.46;94.78;100260.80;111027;1208;140799;-60
2023/04/12 00:16:01;;;;;;;13.70;6.20;;;;;;;5.45;94.78;100260.14;111085;1209;100661;-60
2023/04/12 00:18:27;;;;;;;8.30;4.40;;;;;;;5.44;94.81;100259.45;110896;1209;140685;-59
2023/04/12 00:20:53;;;;;;;14.60;4.30;;;;;;;5.43;94.78;100260.89;111070;1209;98921;-60
2023/04/12 00:23:19;;;;;;;10.00;5.20;;;;;;;5.41;94.97;100260.42;111002;1209;99977;-59
2023/04/12 00:25:44;;;;;;;10.00;5.40;;;;;;;5.39;95.00;100265.10;110938;1206;139042;-60
2023/04/12 00:28:10;;;;;;;10.50;5.60;;;;;;;5.36;94.86;100261.45;111091;1206;99082;-59
2023/04/12 00:30:35;;;;;;;11.80;6.10;;;;;;;5.34;94.92;100261.34;110832;1211;140851;-58
2023/04/12 00:33:01;;;;;;;9.90;5.60;;;;;;;5.31;95.00;100264.60;111017;1206;99051;-58
2023/04/12 00:35:26;;;;;;;14.20;5.50;;;;;;;5.30;95.14;100260.55;111014;1212;100268;-58
2023/04/12 00:37:52;;;;;;;10.00;5.40;;;;;;;5.29;95.18;100259.70;110950;1206;139228;-58
2023/04/12 00:40:17;;;;;;;11.80;5.90;;;;;;;5.27;95.01;100255.69;111062;1211;99060;-58
2023/04/12 00:42:42;;;;;;;12.60;6.10;;;;;;;5.27;95.17;100257.83;110861;1211;142178;-58
2023/04/12 00:45:08;;;;;;;16.10;5.80;;;;;;;5.26;95.18;100260.31;111047;1206;99155;-58
2023/04/12 00:47:35;;;;;;;21.90;7.10;;;;;;;5.26;95.14;100264.77;111069;1206;98945;-59
2023/04/12 00:50:02;;;;;;;13.00;6.10;;;;;;;5.25;95.08;100266.73;111088;1206;100484;-60
2023/04/12 00:52:32;;;;;;;11.10;5.50;;;;;;;5.24;95.16;100266.05;111021;1209;99032;-58
2023/04/12 00:55:04;;;;;;;15.10;5.50;;;;;;;5.22;95.24;100255.65;110894;1212;139800;-58
2023/04/12 00:57:38;;;;;;;10.20;4.90;;;;;;;5.21;95.26;100251.95;111095;1206;99536;-58
2023/04/12 01:00:07;;;;;;;10.10;5.50;;;;;;;5.19;95.45;100255.76;110885;1209;138807;-58
2023/04/12 01:02:34;;;;;;;11.40;5.30;;;;;;;5.19;95.49;100256.30;111030;1206;99395;-58
2023/04/12 01:05:00;;;;;;;17.70;5.60;;;;;;;5.19;95.48;100260.73;111024;1206;99041;-61
2023/04/12 01:07:50;;;;;;;14.20;5.60;;;;;;;5.17;95.50;100259.16;110927;1211;140362;-61
2023/04/12 01:10:34;;;;;;;12.20;5.90;;;;;;;5.16;95.49;100261.70;110986;1211;99135;-61
2023/04/12 01:13:10;;;;;;;12.20;5.70;;;;;;;5.14;95.62;100261.39;110903;1211;139934;-61
2023/04/12 01:15:40;;;;;;;14.90;6.20;;;;;;;5.12;95.53;100260.73;111125;1208;100037;-60
2023/04/12 01:18:13;;;;;;;12.90;5.90;;;;;;;5.11;95.43;100262.02;110825;1206;139092;-60
2023/04/12 01:20:50;;;;;;;16.30;7.20;;;;;;;5.09;95.48;100268.98;110978;1209;98900;-58
2023/04/12 01:23:46;;;;;;;14.30;6.20;;;;;;;5.07;95.42;100267.59;111032;1212;99073;-58
2023/04/12 01:26:33;;;;;;;11.50;5.70;;;;;;;5.06;95.47;100264.98;110978;1210;113014;-59
2023/04/12 01:29:03;;;;;;;14.30;6.10;;;;;;;5.04;95.60;100269.64;111159;1206;100055;-58
2023/04/12 01:31:31;;;;;;;11.40;5.90;;;;;;;5.02;95.43;100270.93;110804;1206;139106;-58
2023/04/12 01:33:59;;;;;;;16.80;6.30;;;;;;;5.00;95.44;100264.07;111149;1211;98956;-59
2023/04/12 01:36:26;;;;;;;10.70;4.90;;;;;;;5.00;95.55;100267.10;110990;1210;138583;-59
2023/04/12 01:38:53;;;;;;;13.20;6.60;;;;;;;4.95;95.44;100263.50;111050;1206;100402;-58
2023/04/12 01:41:19;;;;;;;13.40;6.20;;;;;;;4.91;95.48;100260.76;111055;1211;99436;-59
2023/04/12 01:43:46;;;;;;;8.40;4.50;;;;;;;4.87;95.55;100260.52;110951;1206;139809;-58
2023/04/12 01:46:15;;;;;;;10.60;5.60;;;;;;;4.82;95.43;100259.41;111026;1211;99057;-59
2023/04/12 01:48:53;;;;;;;15.10;6.00;;;;;;;4.78;95.72;100263.58;110990;1211;139409;-58
2023/04/12 01:51:37;;;;;;;15.70;5.60;;;;;;;4.73;95.70;100263.89;111005;1225;112733;-59
2023/04/12 01:54:10;;;;;;;9.40;5.50;;;;;;;4.69;95.76;100262.39;110898;1206;140060;-59
2023/04/12 01:56:40;;;;;;;14.50;5.90;;;;;;;4.66;95.84;100260.02;111030;1209;108040;-59
2023/04/12 01:59:06;;;;;;;11.50;5.10;;;;;;;4.64;95.79;100263.08;110973;1206;99157;-59
2023/04/12 02:01:32;;;;;;;12.30;5.70;;;;;;;4.60;95.71;100261.58;111119;1209;139844;-59
2023/04/12 02:03:59;;;;;;;11.50;5.50;;;;;;;4.56;95.73;100262.02;111071;1206;98993;-59
2023/04/12 02:06:26;;;;;;;10.50;5.20;;;;;;;4.54;95.81;100263.13;110840;1211;139015;-60
2023/04/12 02:09:01;;;;;;;15.80;6.10;;;;;;;4.52;95.74;100264.42;111247;1210;99065;-59
2023/04/12 02:11:27;;;;;;;16.60;5.50;;;;;;;4.52;95.87;100269.92;111031;1206;99218;-59
2023/04/12 02:13:52;;;;;;;13.50;5.20;;;;;;;4.50;95.66;100265.36;111192;1206;140117;-59
2023/04/12 02:16:19;;;;;;;13.60;5.20;;;;;;;4.49;95.76;100266.98;111007;1209;99038;-59
2023/04/12 02:18:45;;;;;;;12.70;5.20;;;;;;;4.48;95.70;100263.13;110857;1207;139931;-59
2023/04/12 02:21:10;;;;;;;11.40;5.90;;;;;;;4.46;95.65;100262.45;111173;1209;98967;-60
2023/04/12 02:23:36;;;;;;;10.40;5.70;;;;;;;4.43;95.72;100260.23;111038;1206;98928;-59
2023/04/12 02:26:02;;;;;;;11.00;5.70;;;;;;;4.40;95.62;100260.13;110890;1209;140005;-59
2023/04/12 02:28:27;;;;;;;15.60;5.90;;;;;;;4.37;95.67;100262.48;110910;1208;99057;-59
2023/04/12 02:30:53;;;;;;;12.60;6.20;;;;;;;4.36;95.63;100259.16;111018;1206;138769;-59
2023/04/12 02:33:20;;;;;;;13.30;6.40;;;;;;;4.35;95.74;100260.45;110920;1211;99063;-59
2023/04/12 02:35:46;;;;;;;13.40;4.90;;;;;;;4.34;95.67;100257.28;110855;1211;139457;-59
2023/04/12 02:38:12;;;;;;;10.70;5.60;;;;;;;4.32;95.90;100260.86;111039;1211;98975;-59
2023/04/12 02:40:39;;;;;;;7.20;5.10;;;;;;;4.31;95.85;100254.69;112037;1211;99063;-59
2023/04/12 02:43:05;;;;;;;14.80;7.90;;;;;;;4.30;95.86;100254.72;110862;1206;139350;-59
2023/04/12 02:45:30;;;;;;;11.50;5.70;;;;;;;4.29;95.82;100252.80;111011;1210;99070;-59
2023/04/12 02:47:55;;;;;;;8.40;4.80;;;;;;;4.29;95.82;100250.33;110965;1211;138539;-59
2023/04/12 02:50:20;;;;;;;14.60;6.00;;;;;;;4.25;95.69;100247.23;111013;1211;99754;-59
2023/04/12 02:52:46;;;;;;;12.20;5.80;;;;;;;4.23;95.93;100249.57;111024;1211;99007;-59
2023/04/12 02:55:11;;;;;;;10.30;4.90;;;;;;;4.22;95.84;100251.00;110896;1209;140707;-59
2023/04/12 02:57:36;;;;;;;10.50;5.40;;;;;;;4.21;95.93;100248.57;110993;1206;97842;-59
2023/04/12 03:00:07;;;;;;;18.70;6.50;;;;;;;4.20;95.92;100248.59;110963;1210;139282;-59
2023/04/12 03:02:33;;;;;;;;;;;;;;;4.19;95.89;100243.30;111200;1206;107382;-59
2023/04/12 03:04:58;;;;;;;15.20;5.60;;;;;;;4.16;95.99;100244.60;110867;1212;99120;-59
2023/04/12 03:07:24;;;;;;;11.80;6.50;;;;;;;4.16;95.91;100243.18;110995;1206;138516;-60
2023/04/12 03:09:49;;;;;;;18.70;6.50;;;;;;;4.18;96.05;100237.66;110920;1212;98939;-59
2023/04/12 03:12:15;;;;;;;21.20;6.40;;;;;;;4.21;96.14;100236.35;110935;1211;139524;-59
2023/04/12 03:14:41;;;;;;;16.00;6.90;;;;;;;4.22;96.10;100234.91;111114;1208;98929;-59
2023/04/12 03:17:07;;;;;;;13.60;6.60;;;;;;;4.23;96.09;100233.11;111158;1206;99054;-59
2023/04/12 03:19:34;;;;;;;13.60;6.00;;;;;;;4.24;95.82;100226.73;110926;1209;139017;-59
2023/04/12 03:22:00;;;;;;;13.30;6.20;;;;;;;4.23;95.98;100227.98;110996;1227;98993;-59
2023/04/12 03:24:26;;;;;;;21.20;7.40;;;;;;;4.23;95.91;100220.56;110883;1211;138697;-59
2023/04/12 03:26:51;;;;;;;13.40;5.90;;;;;;;4.23;96.16;100215.26;111211;1209;99014;-59
2023/04/12 03:29:17;;;;;;;12.00;5.50;;;;;;;4.21;95.89;100216.73;111010;1209;97860;-60
2023/04/12 03:31:42;;;;;;;13.10;5.70;;;;;;;4.20;96.06;100213.02;110852;1206;140794;-59
2023/04/12 03:34:08;;;;;;;16.30;6.60;;;;;;;4.20;96.00;100210.19;111210;1210;98993;-59
2023/04/12 03:36:33;;;;;;;16.30;6.50;;;;;;;4.20;96.12;100206.31;110903;1211;140787;-58
2023/04/12 03:38:59;;;;;;;10.60;6.00;;;;;;;4.21;96.30;100210.89;111019;1209;99079;-58
2023/04/12 03:41:25;;;;;;;16.50;6.60;;;;;;;4.22;96.14;100211.39;111079;1209;99026;-58
2023/04/12 03:43:50;;;;;;;15.60;7.50;;;;;;;4.23;96.18;100211.36;110935;1209;138633;-58
2023/04/12 03:46:16;;;;;;;22.80;7.60;;;;;;;4.24;96.17;100210.45;110957;1206;99026;-58
2023/04/12 03:48:42;;;;;;;14.60;6.90;;;;;;;4.24;96.09;100209.04;110907;1209;139936;-58
2023/04/12 03:51:10;;;;;;;10.20;6.40;;;;;;;4.25;96.23;100211.51;110987;1210;99134;-58
2023/04/12 03:53:37;;;;;;;18.30;7.20;;;;;;;4.25;96.30;100210.61;111093;1209;115497;-59
2023/04/12 03:56:02;;;;;;;14.50;6.60;;;;;;;4.24;96.26;100210.63;111012;1212;98988;-59
2023/04/12 03:58:27;;;;;;;14.30;6.90;;;;;;;4.24;96.26;100212.21;111022;1209;101664;-58
2023/04/12 04:00:53;;;;;;;13.80;6.60;;;;;;;4.24;96.23;100211.16;110898;1211;139012;-58
2023/04/12 04:03:18;;;;;;;16.90;7.30;;;;;;;4.24;96.37;100217.70;110979;1209;100294;-58
2023/04/12 04:05:44;;;;;;;15.90;6.90;;;;;;;4.25;96.37;100214.66;110979;1206;139947;-58
2023/04/12 04:08:09;;;;;;;15.30;7.40;;;;;;;4.27;96.21;100209.68;110981;1211;99041;-58
2023/04/12 04:10:35;;;;;;;13.10;6.70;;;;;;;4.29;96.21;100209.27;111075;1206;98951;-58
2023/04/12 04:13:01;;;;;;;23.10;9.20;;;;;;;4.29;96.31;100212.11;111023;1222;140338;-58
2023/04/12 04:15:26;;;;;;;15.30;8.50;;;;;;;4.30;96.51;100214.76;110987;1208;97924;-59
2023/04/12 04:17:52;;;;;;;15.50;7.40;;;;;;;4.31;96.31;100210.13;110961;1208;140226;-59
2023/04/12 04:20:18;;;;;;;15.20;7.90;;;;;;;4.31;96.34;100209.95;111000;1206;99086;-58
2023/04/12 04:22:47;;;;;;;14.80;9.40;;;;;;;4.33;96.45;100208.14;110977;1211;99045;-59
2023/04/12 04:25:14;;;;;;;16.90;9.10;;;;;;;4.35;96.40;100203.99;110918;1211;139934;-58
2023/04/12 04:27:43;;;;;;;20.20;7.20;;;;;;;4.38;96.35;100205.16;111090;1206;100218;-58
2023/04/12 04:30:10;;;;;;;17.10;9.10;;;;;;;4.38;96.48;100203.38;111002;1209;138789;-58
2023/04/12 04:32:36;;;;;;;22.10;8.10;;;;;;;4.39;96.50;100210.26;111109;1206;99146;-60
2023/04/12 04:35:02;;;;;;;25.20;9.60;;;;;;;4.40;96.33;100210.77;111015;1208;98996;-60
2023/04/12 04:37:28;;;;;;;16.50;7.80;;;;;;;4.42;96.65;100208.23;110933;1211;139029;-58
2023/04/12 04:39:53;;;;;;;16.90;8.50;;;;;;;4.44;96.54;100207.83;111005;1211;100970;-59
2023/04/12 04:42:20;;;;;;;16.50;9.80;;;;;;;4.46;96.77;100208.33;110944;1206;140490;-58
2023/04/12 04:44:47;;;;;;;14.80;8.40;;;;;;;4.47;96.78;100209.88;111052;1211;99480;-59
2023/04/12 04:47:12;;;;;;;21.40;8.20;;;;;;;4.50;96.77;100213.88;111002;1206;99101;-59
2023/04/12 04:49:37;;;;;;;17.70;9.20;;;;;;;4.51;96.74;100217.75;110872;1206;138699;-59
2023/04/12 04:52:03;;;;;;;16.40;8.40;;;;;;;4.53;96.73;100223.17;111068;1206;98960;-59
2023/04/12 04:54:30;;;;;;;18.30;8.50;;;;;;;4.56;96.69;100224.15;110825;1211;138521;-59
2023/04/12 04:56:56;;;;;;;16.50;8.90;;;;;;;4.58;96.75;100222.52;111025;1211;99068;-60
2023/04/12 04:59:22;;;;;;;19.50;8.00;;;;;;;4.62;96.83;100225.26;111075;1207;98993;-60
2023/04/12 05:01:48;;;;;;;17.00;7.80;;;;;;;4.65;96.94;100228.18;110925;1209;139373;-60
2023/04/12 05:04:14;;;;;;;20.30;8.20;;;;;;;4.66;96.94;100229.22;111071;1211;99033;-60
2023/04/12 05:06:39;;;;;;;12.50;7.50;;;;;;;4.68;96.81;100228.98;110864;1208;138677;-59
2023/04/12 05:09:04;;;;;;;18.40;7.90;;;;;;;4.71;96.78;100231.05;111077;1206;98956;-59
2023/04/12 05:11:29;;;;;;;16.60;7.30;;;;;;;4.73;96.81;100229.91;110957;1211;99788;-59
2023/04/12 05:13:55;;;;;;;18.80;7.90;;;;;;;4.75;97.08;100224.55;110952;1211;138922;-58
2023/04/12 05:16:20;;;;;;;17.50;7.50;;;;;;;4.78;97.02;100225.17;111018;1207;98935;-59
2023/04/12 05:18:45;;;;;;;17.90;7.80;;;;;;;4.79;96.77;100226.58;110889;1211;141193;-58
2023/04/12 05:21:10;;;;;;;17.40;8.40;;;;;;;4.83;96.98;100230.36;111032;1209;98961;-60
2023/04/12 05:23:42;;;;;;;13.80;7.20;;;;;;;4.86;96.99;100232.21;110943;1206;99047;-59
2023/04/12 05:26:07;;;;;;;15.50;8.70;;;;;;;4.89;96.98;100230.20;110988;1211;99023;-59
2023/04/12 05:28:32;;;;;;;24.40;9.70;;;;;;;4.91;96.98;100228.21;110992;1209;98942;-59
2023/04/12 05:30:58;;;;;;;17.50;8.20;;;;;;;4.93;97.03;100228.69;110902;1206;138479;-58
2023/04/12 05:33:23;;;;;;;20.00;8.50;;;;;;;4.98;97.21;100231.20;110938;1208;98946;-59
2023/04/12 05:35:48;;;;;;;13.00;7.10;;;;;;;5.02;97.10;100233.21;110977;1212;139302;-59
2023/04/12 05:38:14;;;;;;;14.50;7.50;;;;;;;5.02;96.98;100228.97;110912;1211;100291;-59
2023/04/12 05:40:42;;;;;;;15.00;8.40;;;;;;;5.04;97.08;100226.60;110929;1213;100172;-59
2023/04/12 05:43:11;;;;;;;20.70;8.50;;;;;;;5.10;97.29;100225.57;110986;1209;138739;-59
2023/04/12 05:45:37;;;;;;;24.00;8.30;;;;;;;5.12;97.16;100222.33;110951;1209;98952;-59
2023/04/12 05:48:02;;;;;;;16.00;7.70;;;;;;;5.14;97.08;100221.73;110908;1212;139436;-59
2023/04/12 05:50:27;;;;;;;11.30;7.50;;;;;;;5.17;97.21;100219.16;111044;1209;99118;-59
2023/04/12 05:52:54;;;;;;;22.50;9.50;;;;;;;5.21;97.22;100214.40;111002;1214;98939;-59
2023/04/12 05:55:20;;;;;;;18.10;8.90;;;;;;;5.29;97.21;100212.92;110803;1209;138777;-59
2023/04/12 05:57:46;;;;;;;21.10;9.60;;;;;;;5.37;97.32;100213.41;110972;1206;98975;-59
2023/04/12 06:00:15;;;;;;;20.20;9.70;;;;;;;5.44;97.23;100216.74;110908;1205;139403;-59
2023/04/12 06:02:42;;;;;;;16.00;8.40;;;;;;;5.49;97.22;100217.83;111135;1211;99246;-60
2023/04/12 06:05:08;;;;;;;17.30;8.70;;;;;;;5.57;97.41;100215.48;110953;1211;98990;-60
2023/04/12 06:07:34;;;;;;;19.20;9.10;;;;;;;5.68;97.54;100213.04;110850;1209;138635;-59
2023/04/12 06:09:59;;;;;;;17.60;7.70;;;;;;;5.77;97.57;100211.51;111119;1211;99045;-59
2023/04/12 06:12:24;;;;;;;23.30;8.80;;;;;;;5.79;97.27;100212.34;110829;1207;138913;-60
2023/04/12 06:14:50;;;;;;;15.70;8.50;;;;;;;5.86;97.52;100206.44;111019;1211;99149;-59
2023/04/12 06:17:15;;;;;;;16.70;8.70;;;;;;;5.91;97.40;100204.70;110998;1211;99064;-59
2023/04/12 06:19:40;;;;;;;13.50;7.70;;;;;;;5.96;97.42;100205.61;110804;1211;140300;-60
2023/04/12 06:22:06;;;;;;;19.30;7.40;;;;;;;6.03;97.49;100204.15;111002;1206;98958;-60
2023/04/12 06:24:31;;;;;;;18.30;9.10;;;;;;;6.10;97.52;100200.02;110762;1212;138926;-59
2023/04/12 06:26:56;;;;;;;15.80;8.20;;;;;;;6.15;97.45;100192.58;110969;1206;99089;-59
2023/04/12 06:29:21;;;;;;;18.50;9.40;;;;;;;6.13;97.34;100190.91;110992;1211;99021;-60
2023/04/12 06:31:47;;;;;;;19.20;9.10;;;;;;;6.18;97.55;100187.70;110895;1206;139584;-59
2023/04/12 06:34:12;;;;;;;16.20;9.10;;;;;;;6.27;97.53;100189.35;110984;1211;100025;-59
2023/04/12 06:36:40;;;;;;;15.30;8.50;;;;;;;6.38;97.61;100192.20;110855;1211;139009;-59
2023/04/12 06:46:17;;;;;;;20.20;9.90;;;;;;;6.71;97.61;100188.40;110981;1210;113771;-59
2023/04/12 06:52:05;;;;;;;23.60;10.90;;;;;;;6.79;97.41;100190.97;110979;1211;105067;-59
2023/04/12 06:54:30;;;;;;;19.60;10.70;;;;;;;6.80;97.27;100189.52;110845;1206;140814;-60
2023/04/12 06:56:56;;;;;;;21.30;9.50;;;;;;;6.81;97.31;100183.58;111056;1209;99095;-60
2023/04/12 06:59:21;;;;;;;22.90;10.30;;;;;;;6.83;97.21;100186.38;111025;1206;98961;-60
2023/04/12 07:01:47;;;;;;;22.30;10.80;;;;;;;6.89;97.39;100188.13;110772;1208;140644;-60
2023/04/12 07:04:12;;;;;;;19.30;10.80;;;;;;;6.94;97.49;100185.98;111052;1211;99359;-60
2023/04/12 07:06:37;;;;;;;21.20;11.20;;;;;;;6.91;97.24;100186.11;110418;1206;141086;-61
2023/04/12 07:09:03;;;;;;;19.60;10.90;;;;;;;6.97;97.51;100181.60;110864;1211;99930;-60
2023/04/12 07:11:30;;;;;;;20.30;11.60;;;;;;;7.07;97.63;100175.59;110955;1209;98993;-61
2023/04/12 07:13:57;;;;;;;24.90;11.70;;;;;;;7.11;97.52;100174.52;110895;1206;138975;-59
2023/04/12 07:16:23;;;;;;;26.50;12.00;;;;;;;7.14;97.27;100173.54;110925;1211;99067;-59
2023/04/12 07:18:48;;;;;;;16.90;10.90;;;;;;;7.23;97.51;100175.35;110767;1211;139462;-59
2023/04/12 07:21:16;;;;;;;23.50;11.20;;;;;;;7.32;97.61;100168.23;110925;1211;100241;-59
2023/04/12 07:23:42;;;;;;;20.90;10.70;;;;;;;7.45;97.69;100165.95;110677;1211;139878;-59
2023/04/12 07:26:07;;;;;;;20.90;11.20;;;;;;;7.56;97.53;100164.85;111090;1206;99255;-59
2023/04/12 07:28:34;;;;;;;17.90;10.60;;;;;;;7.67;97.56;100166.02;110997;1211;99044;-58
2023/04/12 07:31:01;;;;;;;18.10;9.60;;;;;;;7.77;97.54;100162.41;110611;1212;142614;-59
2023/04/12 07:33:27;;;;;;;18.20;10.80;;;;;;;7.80;97.21;100163.33;110675;1211;100431;-59
2023/04/12 07:35:52;;;;;;;17.20;9.40;;;;;;;7.89;97.30;100152.11;110776;1211;139309;-59
2023/04/12 07:38:17;;;;;;;23.80;11.20;;;;;;;8.00;97.32;100148.61;110937;1219;99035;-59
2023/04/12 07:40:42;;;;;;;21.20;10.40;;;;;;;8.09;97.21;100144.72;110915;1210;99050;-61
2023/04/12 07:43:08;;;;;;;27.60;11.20;;;;;;;8.12;97.38;100141.21;110843;1211;139546;-61
2023/04/12 07:45:36;;;;;;;14.60;9.70;;;;;;;8.15;97.23;100137.51;110798;1211;99841;-60
2023/04/12 07:48:02;;;;;;;16.20;10.00;;;;;;;8.24;97.33;100133.41;110944;1207;139544;-60
2023/04/12 07:50:29;;;;;;;16.20;9.30;;;;;;;8.32;97.43;100126.48;110727;1206;98958;-60
2023/04/12 07:53:15;;;;;;;14.20;9.00;;;;;;;8.29;96.94;100126.10;110877;1210;99023;-61
2023/04/12 07:55:41;;;;;;;12.20;9.30;;;;;;;8.27;96.84;100132.04;110738;1211;138916;-60
2023/04/12 07:58:06;;;;;;;14.20;9.20;;;;;;;8.39;96.99;100135.31;110857;1211;98913;-60
2023/04/12 08:00:33;;;;;;;14.00;9.30;;;;;;;8.51;97.11;100136.77;110722;1211;139308;-60
2023/04/12 08:02:58;;;;;;;17.60;8.80;;;;;;;8.62;97.13;100141.23;110865;1206;99486;-60
2023/04/12 08:05:24;;;;;;;13.70;9.00;;;;;;;8.76;97.10;100141.89;110868;1211;99850;-61
2023/04/12 08:07:49;;;;;;;13.80;7.70;;;;;;;8.89;97.18;100144.34;110913;1208;138834;-61
2023/04/12 08:10:14;;;;;;;23.70;12.30;;;;;;;9.00;97.07;100142.62;110837;1209;99000;-61
2023/04/12 08:12:40;;;;;;;12.80;9.00;;;;;;;9.09;97.07;100138.78;110854;1211;139019;-61
2023/04/12 08:15:06;;;;;;;13.30;8.30;;;;;;;9.10;96.81;100136.27;110929;1211;98947;-60
2023/04/12 08:17:31;;;;;;;16.60;8.40;;;;;;;9.12;96.67;100133.87;110944;1211;99019;-60
2023/04/12 08:19:56;;;;;;;17.80;9.40;;;;;;;9.22;96.86;100133.38;110761;1211;138581;-60
2023/04/12 08:22:21;;;;;;;15.10;9.50;;;;;;;9.30;96.64;100134.98;110970;1209;99574;-59
2023/04/12 08:24:48;;;;;;;17.90;8.40;;;;;;;9.41;96.62;100130.36;110725;1211;140425;-60
2023/04/12 08:27:13;;;;;;;19.70;9.40;;;;;;;9.50;96.51;100129.39;110887;1211;99270;-60
2023/04/12 08:29:39;;;;;;;20.10;10.90;;;;;;;9.65;96.57;100127.63;110651;1211;99032;-60
2023/04/12 08:32:04;;;;;;;19.00;9.90;;;;;;;9.82;96.50;100124.11;110703;1211;139230;-60
2023/04/12 08:34:29;;;;;;;19.50;10.00;;;;;;;9.91;96.28;100123.85;110948;1211;98979;-60
2023/04/12 08:36:58;;;;;;;19.50;9.50;;;;;;;9.95;96.15;100120.61;110678;1211;139298;-61
2023/04/12 08:39:23;;;;;;;21.40;10.80;;;;;;;9.95;95.83;100124.02;110807;1208;99028;-60
2023/04/12 08:41:49;;;;;;;20.30;10.10;;;;;;;10.05;96.00;100120.84;110735;1213;140149;-60
2023/04/12 08:44:15;;;;;;;15.50;9.00;;;;;;;10.16;95.87;100113.68;110832;1208;107338;-62
2023/04/12 08:46:41;;;;;;;16.00;8.10;;;;;;;10.17;95.50;100113.11;110896;1211;101808;-60
2023/04/12 08:49:07;;;;;;;16.40;9.50;;;;;;;10.12;95.27;100111.74;110949;1208;139316;-61
2023/04/12 08:51:33;;;;;;;13.90;7.80;;;;;;;10.21;95.36;100108.64;110876;1212;97835;-60
2023/04/12 08:53:59;;;;;;;10.80;6.80;;;;;;;10.34;95.40;100108.88;113095;1206;140443;-61
2023/04/12 08:56:29;;;;;;;11.30;6.80;;;;;;;10.45;95.42;100108.29;113236;1207;97210;-59
2023/04/12 08:58:55;;;;;;;13.20;7.10;;;;;;;10.48;95.06;100106.52;113268;1205;97131;-60
2023/04/12 09:01:20;;;;;;;11.40;7.30;;;;;;;10.36;94.33;100106.09;111032;1206;142637;-60
2023/04/12 09:03:45;;;;;;;13.40;6.90;;;;;;;10.27;94.24;100104.42;110867;1219;99816;-60
2023/04/12 09:06:12;;;;;;;10.20;6.70;;;;;;;10.32;94.47;100099.89;110714;1211;140099;-60
2023/04/12 09:08:50;;;;;;;12.70;7.30;;;;;;;10.38;94.39;100099.17;110989;1209;99011;-60
2023/04/12 09:11:26;;;;;;;11.50;7.80;;;;;;;10.45;94.20;100095.23;110921;1211;112783;-60
2023/04/12 09:13:53;;;;;;;9.30;5.80;;;;;;;10.55;94.14;100089.73;110882;1211;139827;-60
2023/04/12 09:16:35;;;;;;;14.10;7.60;;;;;;;10.47;93.35;100091.75;110887;1206;99017;-60
2023/04/12 09:19:02;;;;;;;10.60;6.80;;;;;;;10.44;92.96;100091.70;110807;1211;139589;-60
2023/04/12 09:21:33;;;;;;;14.40;7.60;;;;;;;10.59;92.67;100090.40;110915;1211;99179;-60
2023/04/12 09:24:08;;;;;;;10.50;7.00;;;;;;;10.67;91.92;100083.00;110939;1211;139104;-60
2023/04/12 09:26:36;;;;;;;12.30;6.30;;;;;;;10.74;91.85;100082.63;110856;1207;99945;-60
2023/04/12 09:29:03;;;;;;;12.10;6.40;;;;;;;10.89;92.34;100076.66;110884;1211;106674;-60
2023/04/12 09:31:30;;;;;;;8.90;5.80;;;;;;;10.98;92.17;100074.02;113088;1206;143159;-59
2023/04/12 09:34:07;;;;;;;12.30;6.10;;;;;;;10.97;91.35;100070.88;113320;1206;97103;-59
2023/04/12 09:36:39;;;;;;;8.70;5.60;;;;;;;10.98;91.07;100066.85;112943;1206;139611;-60
2023/04/12 09:39:05;;;;;;;11.60;5.90;;;;;;;11.20;91.18;100068.19;113253;1206;99460;-60
2023/04/12 09:41:31;;;;;;;7.80;5.10;;;;;;;11.33;90.99;100063.30;111279;1208;99021;-60
2023/04/12 09:44:02;;;;;;;10.80;4.90;;;;;;;11.46;90.87;100059.77;110949;1207;138825;-61
2023/04/12 09:46:27;;;;;;;9.30;4.60;;;;;;;11.59;90.62;100055.95;111006;1211;112397;-61
2023/04/12 09:48:58;;;;;;;7.80;5.10;;;;;;;11.65;90.36;100050.79;110811;1208;140398;-60
2023/04/12 09:51:31;;;;;;;7.10;4.20;;;;;;;11.81;90.40;100048.80;110674;1211;108005;-61
2023/04/12 09:53:58;;;;;;;7.40;3.80;;;;;;;12.00;90.45;100045.38;111085;1208;139614;-59
2023/04/12 09:56:27;;;;;;;4.60;3.20;;;;;;;12.17;90.10;100043.83;110822;1209;99127;-59
2023/04/12 09:58:53;;;;;;;8.40;3.20;;;;;;;12.28;89.52;100043.35;110851;1224;112560;-59
2023/04/12 10:01:22;;;;;;;6.70;3.50;;;;;;;12.36;89.15;100041.05;110482;1209;140912;-59
2023/04/12 10:03:47;;;;;;;4.50;3.00;;;;;;;12.43;88.98;100038.52;110662;1208;99107;-59
2023/04/12 10:06:14;;;;;;;5.90;3.40;;;;;;;12.48;88.49;100034.63;110631;1211;139007;-59
2023/04/12 10:08:41;;;;;;;4.40;3.40;;;;;;;12.47;88.19;100030.34;110884;1208;99045;-60
2023/04/12 10:11:08;;;;;;;9.60;3.20;;;;;;;12.52;87.70;100030.45;111028;1211;99885;-59
2023/04/12 10:13:35;;;;;;;3.60;2.70;;;;;;;12.49;87.43;100031.50;110385;1209;140041;-60
2023/04/12 10:16:04;;;;;;;4.80;3.00;;;;;;;12.45;87.14;100029.97;110806;1211;99010;-59
2023/04/12 10:18:34;;;;;;;5.30;3.50;;;;;;;12.43;86.92;100026.84;112943;1205;138978;-63
2023/04/12 10:21:00;;;;;;;5.10;3.50;;;;;;;12.50;87.03;100022.31;110702;1211;112990;-60
2023/04/12 10:23:26;;;;;;;7.90;4.30;;;;;;;12.49;86.53;100021.63;110963;1208;98958;-59
2023/04/12 10:25:52;;;;;;;8.00;4.30;;;;;;;12.52;86.29;100017.35;110654;1211;139266;-60
2023/04/12 10:28:21;;;;;;;6.90;3.90;;;;;;;12.56;86.06;100015.15;110907;1212;98995;-59
2023/04/12 10:30:49;;;;;;;7.00;3.80;;;;;;;12.63;86.07;100012.36;110770;1206;138808;-60
2023/04/12 10:33:16;;;;;;;7.00;4.20;;;;;;;12.62;85.59;100007.21;111053;1208;99737;-60
2023/04/12 10:35:55;;;;;;;16.80;7.60;;;;;;;12.57;85.28;100005.89;110873;1211;99010;-60
2023/04/12 10:38:23;;;;;;;12.40;5.30;;;;;;;12.56;84.95;100003.11;110851;1209;100436;-59
2023/04/12 10:41:16;;;;;;;5.10;3.80;;;;;;;12.57;84.97;100006.81;110927;1209;99404;-60
2023/04/12 10:43:50;;;;;;;5.60;4.00;;;;;;;12.55;84.12;100002.30;110625;1207;140448;-61
2023/04/12 10:46:36;;;;;;;15.40;6.70;;;;;;;12.56;84.30;99998.65;110643;1209;99980;-60
2023/04/12 10:49:12;;;;;;;24.40;10.50;;;;;;;12.62;84.11;99998.42;110512;1211;140160;-59
2023/04/12 10:51:38;;;;;;;17.60;6.50;;;;;;;12.65;83.89;99999.16;110639;1208;99015;-63
2023/04/12 10:54:06;;;;;;;9.60;5.10;;;;;;;12.64;83.79;99996.01;111099;1209;139614;-60
2023/04/12 10:56:31;;;;;;;8.80;3.80;;;;;;;12.62;83.62;99997.20;110829;1211;99318;-59
2023/04/12 10:58:58;;;;;;;5.30;3.50;;;;;;;12.50;83.23;99994.35;110780;1208;99543;-59
2023/04/12 11:01:25;;;;;;;5.30;3.30;;;;;;;12.30;82.95;99992.89;110583;1209;139248;-60
2023/04/12 11:04:14;;;;;;;9.80;3.80;;;;;;;12.23;82.69;99994.42;110680;1211;99531;-60
2023/04/12 11:06:49;;;;;;;8.00;4.00;;;;;;;12.22;82.22;99988.92;110702;1209;139342;-60
2023/04/12 11:09:27;;;;;;;7.80;4.60;;;;;;;12.04;81.67;99992.87;110660;1209;104126;-59
2023/04/12 11:11:57;;;;;;;7.50;4.60;;;;;;;11.89;81.52;99989.07;110589;1222;140447;-60
2023/04/12 11:14:28;;;;;;;7.50;4.80;;;;;;;11.77;81.44;99986.56;110684;1211;99149;-61
2023/04/12 11:17:05;;;;;;;8.40;4.70;;;;;;;11.65;81.38;99984.95;110775;1208;98807;-60
2023/04/12 11:19:32;;;;;;;11.30;4.00;;;;;;;11.59;81.49;99984.75;110563;1212;138723;-60
2023/04/12 11:22:00;;;;;;;4.90;4.00;;;;;;;11.50;81.25;99984.59;110892;1211;98936;-60
2023/04/12 11:24:26;;;;;;;10.70;4.00;;;;;;;11.43;81.16;99979.45;110913;1208;139366;-60